KPRN

Mac Crenshaw Memorial Airport

Greenville, Alabama, USA
METAR KPRN 182120Z AUTO VRB03KT 1/4SM +TSRA BKN011 BKN016 OVC028 24/21 A3005 RMK AO2 RAB06 TSE03B09B14 PRESRR P0070 T02390211
Observed Flight Rules
Aug-18 @ 21:20 UTC (34 minutes ago) Instrument Flight Rules
Wind Visibility Clouds Conditions
Variable at 3 knots 1/4 miles
  • Broken at 1,100' AGL
  • Broken at 1,600' AGL
  • Overcast at 2,800' AGL
  • Heavy Thunderstorm
  • Heavy Rain
Temperatures Readings Precipitation
Current 24°C / 75°F
Dewpoint 21°C / 70°F
Humidity 83%
Altimeter 30.05" Hg
Pressure 1018 hPa
Elevation 138
Current Rain 0.7
METAR KPRN 182120Z AUTO VRB03KT 1/4SM +TSRA BKN011 BKN016 OVC028 24/21 A3005 RMK AO2 RAB06 TSE03B09B14 PRESRR P0070 T02390211
Observed Flight Rules
Aug-18 @ 21:20 UTC
(34 minutes ago)
LIFR
Wind Visibility
Variable at 3 knots 1/4 miles
Clouds
  • Broken at 1,100' AGL
  • Broken at 1,600' AGL
  • Overcast at 2,800' AGL
Conditions
  • Heavy Thunderstorm
  • Heavy Rain
Temperature Dewpoint
24°C / 75°F 21°C / 70°F
Humidity Altimeter Pressure
83% 30.05" Hg 1018 hPa
Current Rain
0.7